Etusivu
METAR-TAF:

METAR-TAF

Lentoasemat :

Shōnai, Japani

Leveyspiiri: 38-49N, Pituuspiiri: 139-47E, korkeus merenpinnasta: 22 m

Tämänhetkinen sää

Tämä raportti tehtiin 31 minuuttia sitten, kello 02.00 UTC
Tuuli 5 kn lännestä/luoteesta, vaihdellen lännen ja pohjoisen/luoteen välillä
Lämpötila 6°C
Kosteus 45%
Ilmanpaine 1031 hPa
Näkyvyys 10 km tai enemmän
Muutamia pilviä 4000 ft:n korkeudessa
Hajanaisia pilviä 5000 ft:n korkeudessa
Hajonneita pilviä

METAR: RJSY 110200Z 29005KT 260V340 9999 FEW040 SCT050 BKN/// 06/M05 Q1031

Aika: 11:31 (02:31 UTC)


TAF: puuttuu

Säähavainnot ja -ennusteet yli 4000 lentoasemalta (METAR- ja TAF-raportit).

Käytössä olevat sääasemat on merkitty karttaan keltaisilla ja punaisilla pisteillä.

Aseta hiiri pisteen päälle nähdäksesi sääaseman nimen.

Klikkaa sitten nähdäksesi säähavainnot ja -ennusteet.

Kartan vaihtaminen: klikkaa mustalla rastilla varustettuja vihreitä pisteitä, niin voit zoomata sisään; viivalla varustettua vihreää pistettä, niin voit zoomata ulos tai vihreitä nuolia, niin pääset viereisille kartoille.


METAR-TAF: